createdAt,value
2017-12-29T00:00:10.498Z,4.70
2017-12-29T00:02:37.933Z,5.00
2017-12-29T00:05:05.771Z,4.30
2017-12-29T00:07:33.207Z,4.57
2017-12-29T00:10:00.639Z,5.93
2017-12-29T00:12:28.081Z,5.07
2017-12-29T00:14:55.517Z,5.10
2017-12-29T00:17:22.939Z,5.63
2017-12-29T00:19:50.395Z,5.43
2017-12-29T00:22:17.815Z,5.77
2017-12-29T00:24:45.269Z,4.80
2017-12-29T00:27:12.708Z,4.37
2017-12-29T00:29:40.140Z,4.60
2017-12-29T00:32:07.977Z,5.70
2017-12-29T00:34:35.408Z,5.03
2017-12-29T00:37:02.862Z,5.27
2017-12-29T00:39:30.295Z,4.77
2017-12-29T00:41:57.722Z,5.00
2017-12-29T00:44:25.560Z,4.70
2017-12-29T00:46:52.996Z,6.07
2017-12-29T00:49:21.231Z,4.77
2017-12-29T00:51:48.675Z,4.40
2017-12-29T00:54:16.099Z,4.53
2017-12-29T00:56:43.520Z,3.80
2017-12-29T00:59:10.972Z,6.20
2017-12-29T01:01:38.568Z,3.87
2017-12-29T01:04:06.024Z,5.27
2017-12-29T01:06:33.456Z,4.93
2017-12-29T01:09:00.891Z,5.10
2017-12-29T01:11:28.327Z,4.80
2017-12-29T01:13:55.759Z,4.87
2017-12-29T01:16:23.583Z,4.80
2017-12-29T01:18:51.020Z,5.40
2017-12-29T01:21:18.470Z,5.57
2017-12-29T01:23:45.907Z,4.63
2017-12-29T01:26:13.340Z,4.40
2017-12-29T01:28:41.164Z,5.10
2017-12-29T01:31:08.620Z,4.87
2017-12-29T01:33:36.061Z,5.00
2017-12-29T01:36:03.488Z,4.50
2017-12-29T01:38:30.917Z,5.00
2017-12-29T01:40:58.739Z,3.70
2017-12-29T01:43:26.195Z,4.23
2017-12-29T01:45:53.620Z,4.00
2017-12-29T01:48:21.048Z,5.37
2017-12-29T01:50:48.883Z,3.93
2017-12-29T01:53:16.312Z,4.83
2017-12-29T01:55:43.276Z,4.65
2017-12-29T01:58:10.709Z,4.90
2017-12-29T02:00:38.135Z,4.37
2017-12-29T02:03:05.572Z,4.32
2017-12-29T02:05:33.401Z,3.70
2017-12-29T02:08:00.857Z,5.30
2017-12-29T02:10:28.281Z,3.50
2017-12-29T02:12:55.715Z,4.30
2017-12-29T02:15:23.175Z,3.90
2017-12-29T02:17:50.623Z,5.93
2017-12-29T02:20:18.052Z,3.85
2017-12-29T02:22:45.506Z,3.83
2017-12-29T02:25:12.949Z,3.80
2017-12-29T02:27:40.387Z,4.77
2017-12-29T02:30:07.845Z,4.70
2017-12-29T02:32:35.268Z,4.17
2017-12-29T02:35:02.696Z,4.47
2017-12-29T02:37:30.520Z,4.93
2017-12-29T02:39:57.957Z,4.10
2017-12-29T02:42:25.409Z,3.70
2017-12-29T02:44:52.847Z,3.77
2017-12-29T02:47:20.290Z,4.20
2017-12-29T02:49:48.395Z,3.83
2017-12-29T02:52:15.829Z,3.83
2017-12-29T02:54:43.246Z,5.83
2017-12-29T02:57:11.102Z,5.77
2017-12-29T02:59:38.528Z,4.03
2017-12-29T03:02:05.963Z,5.23
2017-12-29T03:04:33.383Z,3.77
2017-12-29T03:07:01.208Z,4.63
2017-12-29T03:09:28.663Z,3.90
2017-12-29T03:11:56.091Z,5.20
2017-12-29T03:14:23.516Z,3.73
2017-12-29T03:16:51.361Z,3.67
2017-12-29T03:19:18.792Z,5.60
2017-12-29T03:21:46.228Z,4.30
2017-12-29T03:24:14.204Z,3.90
2017-12-29T03:26:41.631Z,4.00
2017-12-29T03:29:09.058Z,3.47
2017-12-29T03:31:36.899Z,3.87
2017-12-29T03:34:04.330Z,3.80
2017-12-29T03:36:31.763Z,3.50
2017-12-29T03:38:59.443Z,3.10
2017-12-29T03:41:26.876Z,3.67
2017-12-29T03:43:54.308Z,3.33
2017-12-29T03:46:22.124Z,4.20
2017-12-29T03:48:49.546Z,3.50
2017-12-29T03:51:16.991Z,3.40
2017-12-29T03:53:44.423Z,4.13
2017-12-29T03:56:11.858Z,3.67
2017-12-29T03:58:39.307Z,3.53
2017-12-29T04:01:06.736Z,3.80
2017-12-29T04:03:34.180Z,3.80
2017-12-29T04:06:01.614Z,3.10
2017-12-29T04:08:29.083Z,3.37
2017-12-29T04:10:56.502Z,3.27
2017-12-29T04:13:23.928Z,2.70
2017-12-29T04:15:51.388Z,3.70
2017-12-29T04:18:18.827Z,3.60
2017-12-29T04:20:46.259Z,3.80
2017-12-29T04:23:13.687Z,2.97
2017-12-29T04:25:41.676Z,3.00
2017-12-29T04:28:09.060Z,3.42
2017-12-29T04:30:36.484Z,3.78
2017-12-29T04:33:03.920Z,3.97
2017-12-29T04:35:31.759Z,3.37
2017-12-29T04:37:59.182Z,3.27
2017-12-29T04:40:26.619Z,3.10
2017-12-29T04:42:54.047Z,2.67
2017-12-29T04:45:21.884Z,3.23
2017-12-29T04:47:49.339Z,3.87
2017-12-29T04:50:16.772Z,3.17
2017-12-29T04:52:44.217Z,4.00
2017-12-29T04:55:11.655Z,3.10
2017-12-29T04:57:39.091Z,3.50
2017-12-29T05:00:06.946Z,3.17
2017-12-29T05:02:34.764Z,2.87
2017-12-29T05:05:02.201Z,3.45
2017-12-29T05:07:29.657Z,2.80
2017-12-29T05:09:57.084Z,3.37
2017-12-29T05:12:24.898Z,3.20
2017-12-29T05:14:52.359Z,3.00
2017-12-29T05:17:19.793Z,4.07
2017-12-29T05:19:47.219Z,2.83
2017-12-29T05:22:14.679Z,3.37
2017-12-29T05:24:42.116Z,3.67
2017-12-29T05:27:09.940Z,3.20
2017-12-29T05:29:37.394Z,3.17
2017-12-29T05:32:04.824Z,3.77
2017-12-29T05:34:32.262Z,3.60
2017-12-29T05:36:59.691Z,3.13
2017-12-29T05:39:27.511Z,4.00
2017-12-29T05:41:54.960Z,3.47
2017-12-29T05:44:22.393Z,4.30
2017-12-29T05:46:49.823Z,4.17
2017-12-29T05:49:17.660Z,3.27
2017-12-29T05:51:45.095Z,3.45
2017-12-29T05:54:12.538Z,3.30
2017-12-29T05:56:39.994Z,3.87
2017-12-29T05:59:07.429Z,4.03
2017-12-29T06:01:34.854Z,3.35
2017-12-29T06:04:02.700Z,3.60
2017-12-29T06:06:30.132Z,4.00
2017-12-29T06:08:57.577Z,3.85
2017-12-29T06:11:25.020Z,3.80
2017-12-29T06:13:52.451Z,3.90
2017-12-29T06:16:20.269Z,3.70
2017-12-29T06:18:47.695Z,3.80
2017-12-29T06:21:15.133Z,5.05
2017-12-29T06:23:42.575Z,4.10
2017-12-29T06:26:10.403Z,3.37
2017-12-29T06:28:37.894Z,3.70
2017-12-29T06:31:05.724Z,3.63
2017-12-29T06:33:33.152Z,3.97
2017-12-29T06:36:00.816Z,4.37
2017-12-29T06:38:28.244Z,3.93
2017-12-29T06:40:55.689Z,3.80
2017-12-29T06:43:23.700Z,4.53
2017-12-29T06:45:51.119Z,3.70
2017-12-29T06:48:18.564Z,4.23
2017-12-29T06:50:46.388Z,4.43
2017-12-29T06:53:13.819Z,5.10
2017-12-29T06:55:41.250Z,3.80
2017-12-29T06:58:08.677Z,6.57
2017-12-29T07:00:36.507Z,4.23
2017-12-29T07:03:03.935Z,5.73
2017-12-29T07:05:31.368Z,5.10
2017-12-29T07:07:59.468Z,5.10
2017-12-29T07:10:26.895Z,5.30
2017-12-29T07:12:54.331Z,5.03
2017-12-29T07:15:22.450Z,5.85
2017-12-29T07:17:49.879Z,5.67
2017-12-29T07:20:17.315Z,6.33
2017-12-29T07:22:45.173Z,5.20
2017-12-29T07:25:12.996Z,5.43
2017-12-29T07:27:40.423Z,5.70
2017-12-29T07:30:07.901Z,5.75
2017-12-29T07:32:35.303Z,5.90
2017-12-29T07:35:03.131Z,5.78
2017-12-29T07:37:30.574Z,6.37
2017-12-29T07:39:58.004Z,5.60
2017-12-29T07:42:25.423Z,6.07
2017-12-29T07:44:53.289Z,6.20
2017-12-29T07:47:20.712Z,6.60
2017-12-29T07:49:48.151Z,6.97
2017-12-29T07:52:15.759Z,6.30
2017-12-29T07:54:43.580Z,6.70
2017-12-29T07:57:11.026Z,6.43
2017-12-29T07:59:38.463Z,5.40
2017-12-29T08:02:05.897Z,6.00
2017-12-29T08:04:33.715Z,7.23
2017-12-29T08:07:01.784Z,7.50
2017-12-29T08:09:29.220Z,7.45
2017-12-29T08:11:56.660Z,7.57
2017-12-29T08:14:24.118Z,8.30
2017-12-29T08:16:51.551Z,8.47
2017-12-29T08:19:18.988Z,7.60
2017-12-29T08:21:46.807Z,6.87
2017-12-29T08:24:14.244Z,7.32
2017-12-29T08:26:41.683Z,8.50
2017-12-29T08:29:09.482Z,7.75
2017-12-29T08:31:36.919Z,7.57
2017-12-29T08:34:04.356Z,8.60
2017-12-29T08:36:32.056Z,8.40
2017-12-29T08:38:59.484Z,7.50
2017-12-29T08:41:26.928Z,8.87
2017-12-29T08:43:54.375Z,8.80
2017-12-29T08:46:22.212Z,8.23
2017-12-29T08:48:49.639Z,9.35
2017-12-29T08:51:17.082Z,9.38
2017-12-29T08:53:44.511Z,8.85
2017-12-29T08:56:11.962Z,9.10
2017-12-29T08:58:39.409Z,10.33
2017-12-29T09:01:07.532Z,9.07
2017-12-29T09:03:34.987Z,8.07
2017-12-29T09:06:02.428Z,9.85
2017-12-29T09:08:29.870Z,9.52
2017-12-29T09:10:57.315Z,9.60
2017-12-29T09:13:24.755Z,10.57
2017-12-29T09:15:52.193Z,8.90
2017-12-29T09:18:19.667Z,10.10
2017-12-29T09:20:47.082Z,9.90
2017-12-29T09:23:14.832Z,8.80
2017-12-29T09:25:42.260Z,9.60
2017-12-29T09:28:09.695Z,9.40
2017-12-29T09:30:37.520Z,9.93
2017-12-29T09:33:04.955Z,9.90
2017-12-29T09:35:32.395Z,9.73
2017-12-29T09:37:59.824Z,8.93
2017-12-29T09:40:27.656Z,9.30
2017-12-29T09:42:55.092Z,10.30
2017-12-29T09:45:22.524Z,9.60
2017-12-29T09:47:49.983Z,10.70
2017-12-29T09:50:17.784Z,10.80
2017-12-29T09:52:45.212Z,9.53
2017-12-29T09:55:12.775Z,10.70
2017-12-29T09:57:40.475Z,12.63
2017-12-29T10:00:08.311Z,12.97
2017-12-29T10:02:35.831Z,10.80
2017-12-29T10:05:03.264Z,11.67
2017-12-29T10:07:31.092Z,11.70
2017-12-29T10:09:58.535Z,13.97
2017-12-29T10:12:25.972Z,10.77
2017-12-29T10:14:53.402Z,11.33
2017-12-29T10:17:20.851Z,11.73
2017-12-29T10:19:48.287Z,12.93
2017-12-29T10:22:16.317Z,11.77
2017-12-29T10:24:43.867Z,11.27
2017-12-29T10:27:11.299Z,12.53
2017-12-29T10:29:39.067Z,10.53
2017-12-29T10:32:06.911Z,11.43
2017-12-29T10:34:34.756Z,12.33
2017-12-29T10:37:02.195Z,12.93
2017-12-29T10:39:29.663Z,13.77
2017-12-29T10:41:57.105Z,13.27
2017-12-29T10:44:24.540Z,13.30
2017-12-29T10:46:52.002Z,11.50
2017-12-29T10:49:19.430Z,12.70
2017-12-29T10:51:46.861Z,13.37
2017-12-29T10:54:14.699Z,10.67
2017-12-29T10:56:42.136Z,12.13
2017-12-29T10:59:09.571Z,13.00
2017-12-29T11:01:37.019Z,13.23
2017-12-29T11:04:04.463Z,12.17
2017-12-29T11:06:31.900Z,12.73
2017-12-29T11:08:59.364Z,13.33
2017-12-29T11:11:26.800Z,14.60
2017-12-29T11:13:54.629Z,11.70
2017-12-29T11:16:22.068Z,13.43
2017-12-29T11:18:49.511Z,12.17
2017-12-29T11:21:17.636Z,12.17
2017-12-29T11:23:45.464Z,11.77
2017-12-29T11:26:12.905Z,12.00
2017-12-29T11:28:40.661Z,11.30
2017-12-29T11:31:08.102Z,11.33
2017-12-29T11:33:35.532Z,11.50
2017-12-29T11:36:03.364Z,11.97
2017-12-29T11:38:30.795Z,11.30
2017-12-29T11:40:58.259Z,10.57
2017-12-29T11:43:25.699Z,10.47
2017-12-29T11:45:53.127Z,11.70
2017-12-29T11:48:20.564Z,11.47
2017-12-29T11:50:48.399Z,12.27
2017-12-29T11:53:15.851Z,11.50
2017-12-29T11:55:43.399Z,10.97
2017-12-29T11:58:10.840Z,12.97
2017-12-29T12:00:38.276Z,11.43
2017-12-29T12:03:05.969Z,11.57
2017-12-29T12:05:33.409Z,12.50
2017-12-29T12:08:00.845Z,14.60
2017-12-29T12:10:28.635Z,12.37
2017-12-29T12:12:56.073Z,12.77
2017-12-29T12:15:23.507Z,13.00
2017-12-29T12:17:50.963Z,11.87
2017-12-29T12:20:18.413Z,12.87
2017-12-29T12:22:46.239Z,13.70
2017-12-29T12:25:13.675Z,14.63
2017-12-29T12:27:41.108Z,13.20
2017-12-29T12:30:08.550Z,15.90
2017-12-29T12:32:35.975Z,15.00
2017-12-29T12:35:03.405Z,11.80
2017-12-29T12:37:30.852Z,15.40
2017-12-29T12:39:58.296Z,13.30
2017-12-29T12:45:00.121Z,13.80
2017-12-29T12:47:27.949Z,14.63
2017-12-29T12:49:55.387Z,13.90
2017-12-29T12:52:22.838Z,14.17
2017-12-29T12:54:50.267Z,13.70
2017-12-29T12:57:17.705Z,11.50
2017-12-29T12:59:45.556Z,13.83
2017-12-29T13:02:12.983Z,12.67
2017-12-29T13:04:40.439Z,14.30
2017-12-29T13:07:07.871Z,11.70
2017-12-29T13:09:35.341Z,13.20
2017-12-29T13:12:02.760Z,11.73
2017-12-29T13:14:30.187Z,12.50
2017-12-29T13:16:57.630Z,12.97
2017-12-29T13:19:25.056Z,11.20
2017-12-29T13:21:52.492Z,11.17
2017-12-29T13:24:19.920Z,11.30
2017-12-29T13:26:47.746Z,11.90
2017-12-29T13:29:15.392Z,11.47
2017-12-29T13:31:42.819Z,10.40
2017-12-29T13:34:10.256Z,10.97
2017-12-29T13:36:38.109Z,11.17
2017-12-29T13:39:05.531Z,10.30
2017-12-29T13:41:32.977Z,10.20
2017-12-29T13:44:00.420Z,11.50
2017-12-29T13:46:27.852Z,10.00
2017-12-29T13:48:55.282Z,9.57
2017-12-29T13:51:23.120Z,10.60
2017-12-29T13:53:50.560Z,10.00
2017-12-29T13:56:17.983Z,8.57
2017-12-29T13:58:45.416Z,8.80
2017-12-29T14:01:13.352Z,8.17
2017-12-29T14:03:40.780Z,8.30
2017-12-29T14:06:08.228Z,7.70
2017-12-29T14:08:35.661Z,7.60
2017-12-29T14:11:03.094Z,7.57
2017-12-29T14:13:30.522Z,7.90
2017-12-29T14:15:57.981Z,7.77
2017-12-29T14:18:25.413Z,8.27
2017-12-29T14:20:52.843Z,8.67
2017-12-29T14:23:20.277Z,8.47
2017-12-29T14:25:48.094Z,7.90
2017-12-29T14:28:15.843Z,7.63
2017-12-29T14:30:43.244Z,6.60
2017-12-29T14:33:11.068Z,8.47
2017-12-29T14:35:38.830Z,9.17
2017-12-29T14:38:06.301Z,7.77
2017-12-29T14:40:33.709Z,7.57
2017-12-29T14:43:01.168Z,8.30
2017-12-29T14:45:29.094Z,8.50
2017-12-29T14:47:56.504Z,7.90
2017-12-29T14:50:24.143Z,8.07
2017-12-29T14:52:51.540Z,8.17
2017-12-29T14:55:19.006Z,8.63
2017-12-29T14:57:47.311Z,8.07
2017-12-29T15:00:15.144Z,8.70
2017-12-29T15:02:42.563Z,8.30
2017-12-29T15:05:10.004Z,8.10
2017-12-29T15:07:37.431Z,7.97
2017-12-29T15:10:05.259Z,8.20
2017-12-29T15:12:32.712Z,7.13
2017-12-29T15:15:00.133Z,7.67
2017-12-29T15:17:27.555Z,7.67
2017-12-29T15:19:55.406Z,8.10
2017-12-29T15:22:22.841Z,8.67
2017-12-29T15:24:50.715Z,7.17
2017-12-29T15:27:18.160Z,7.03
2017-12-29T15:29:45.612Z,7.87
2017-12-29T15:32:13.415Z,8.05
2017-12-29T15:34:41.247Z,7.30
2017-12-29T15:37:08.675Z,8.03
2017-12-29T15:39:36.102Z,8.10
2017-12-29T15:42:03.560Z,7.37
2017-12-29T15:44:30.989Z,7.63
2017-12-29T15:46:58.420Z,7.30
2017-12-29T15:49:25.863Z,10.00
2017-12-29T15:51:53.333Z,7.57
2017-12-29T15:54:20.785Z,7.03
2017-12-29T15:56:48.218Z,7.50
2017-12-29T15:59:15.651Z,7.17
2017-12-29T16:01:45.696Z,7.20
2017-12-29T16:04:13.119Z,8.37
2017-12-29T16:06:40.563Z,9.43
2017-12-29T16:09:07.999Z,8.25
2017-12-29T16:11:35.991Z,7.90
2017-12-29T16:14:03.464Z,8.13
2017-12-29T16:16:30.912Z,11.77
2017-12-29T16:18:58.359Z,9.17
2017-12-29T16:21:25.807Z,10.70
2017-12-29T16:23:53.817Z,9.77
2017-12-29T16:26:21.243Z,8.70
2017-12-29T16:28:48.676Z,7.70
2017-12-29T16:31:16.508Z,7.23
2017-12-29T16:33:43.960Z,7.43
2017-12-29T16:36:11.392Z,6.50
2017-12-29T16:38:38.827Z,7.30
2017-12-29T16:41:06.296Z,7.17
2017-12-29T16:43:33.720Z,7.20
2017-12-29T16:46:01.172Z,8.70
2017-12-29T16:48:28.992Z,8.67
2017-12-29T16:50:56.483Z,7.10
2017-12-29T16:53:23.856Z,6.23
2017-12-29T16:55:51.288Z,5.97
2017-12-29T16:58:19.375Z,5.93
2017-12-29T17:00:46.807Z,5.57
2017-12-29T17:03:14.232Z,5.73
2017-12-29T17:05:41.703Z,5.65
2017-12-29T17:08:09.130Z,5.20
2017-12-29T17:10:36.556Z,4.50
2017-12-29T17:13:04.243Z,5.07
2017-12-29T17:15:31.692Z,4.45
2017-12-29T17:17:59.127Z,5.53
2017-12-29T17:20:26.863Z,4.15
2017-12-29T17:22:54.691Z,4.65
2017-12-29T17:25:22.144Z,4.85
2017-12-29T17:27:49.583Z,4.70
2017-12-29T17:30:17.020Z,4.68
2017-12-29T17:32:44.716Z,4.10
2017-12-29T17:35:12.153Z,3.70
2017-12-29T17:37:39.583Z,4.93
2017-12-29T17:40:07.023Z,4.60
2017-12-29T17:42:34.451Z,4.57
2017-12-29T17:45:01.894Z,4.85
2017-12-29T17:47:29.335Z,4.60
2017-12-29T17:49:56.775Z,3.85
2017-12-29T17:52:24.252Z,4.62
2017-12-29T17:54:51.695Z,4.45
2017-12-29T17:57:19.129Z,4.28
2017-12-29T17:59:46.559Z,4.90
2017-12-29T18:02:14.497Z,4.30
2017-12-29T18:04:41.925Z,5.20
2017-12-29T18:07:09.350Z,4.82
2017-12-29T18:09:36.795Z,4.60
2017-12-29T18:12:04.237Z,5.05
2017-12-29T18:14:32.055Z,4.85
2017-12-29T18:16:59.508Z,4.95
2017-12-29T18:19:26.945Z,4.80
2017-12-29T18:21:54.374Z,4.90
2017-12-29T18:24:22.204Z,4.35
2017-12-29T18:26:49.639Z,4.80
2017-12-29T18:29:17.088Z,4.78
2017-12-29T18:31:44.519Z,5.05
2017-12-29T18:34:11.950Z,4.55
2017-12-29T18:36:39.800Z,4.70
2017-12-29T18:39:07.231Z,5.50
2017-12-29T18:41:34.680Z,5.28
2017-12-29T18:44:02.444Z,5.28
2017-12-29T18:46:29.858Z,4.75
2017-12-29T18:48:57.314Z,6.03
2017-12-29T18:51:24.756Z,6.32
2017-12-29T18:53:52.588Z,7.10
2017-12-29T18:56:20.014Z,6.95
2017-12-29T18:58:48.244Z,6.57
2017-12-29T19:01:16.073Z,7.57
2017-12-29T19:03:43.507Z,5.62
2017-12-29T19:06:10.960Z,6.35
2017-12-29T19:08:38.393Z,7.05
2017-12-29T19:11:05.820Z,6.10
2017-12-29T19:13:33.943Z,5.43
2017-12-29T19:16:01.375Z,4.78
2017-12-29T19:18:28.799Z,4.93
2017-12-29T19:20:56.632Z,5.65
2017-12-29T19:23:24.068Z,5.00
2017-12-29T19:25:51.520Z,4.95
2017-12-29T19:28:18.946Z,5.50
2017-12-29T19:30:46.374Z,5.87
2017-12-29T19:33:13.832Z,5.87
2017-12-29T19:35:41.663Z,5.07
2017-12-29T19:38:09.269Z,4.90
2017-12-29T19:40:36.979Z,7.05
2017-12-29T19:43:04.412Z,8.45
2017-12-29T19:45:31.850Z,7.30
2017-12-29T19:47:59.567Z,4.78
2017-12-29T19:50:27.115Z,4.60
2017-12-29T19:52:54.528Z,6.05
2017-12-29T19:55:21.960Z,5.72
2017-12-29T19:57:49.799Z,5.10
2017-12-29T20:00:17.256Z,5.90
2017-12-29T20:02:44.703Z,5.43
2017-12-29T20:05:12.180Z,5.97
2017-12-29T20:07:39.694Z,5.55
2017-12-29T20:10:07.162Z,5.50
2017-12-29T20:12:34.639Z,5.70
2017-12-29T20:15:02.098Z,5.65
2017-12-29T20:17:29.603Z,6.00
2017-12-29T20:19:57.088Z,5.35
2017-12-29T20:22:24.560Z,4.85
2017-12-29T20:24:52.284Z,4.82
2017-12-29T20:27:19.753Z,4.70
2017-12-29T20:29:47.294Z,4.80
2017-12-29T20:32:14.776Z,4.80
2017-12-29T20:34:42.208Z,4.62
2017-12-29T20:37:09.644Z,5.55
2017-12-29T20:39:37.100Z,5.30
2017-12-29T20:42:04.534Z,5.20
2017-12-29T20:44:32.356Z,4.60
2017-12-29T20:46:59.795Z,5.47
2017-12-29T20:49:27.223Z,5.18
2017-12-29T20:51:54.656Z,4.78
2017-12-29T20:54:22.473Z,5.10
2017-12-29T20:56:49.928Z,4.78
2017-12-29T20:59:17.363Z,6.22
2017-12-29T21:01:44.791Z,5.32
2017-12-29T21:04:12.622Z,5.68
2017-12-29T21:06:40.060Z,5.20
2017-12-29T21:09:07.490Z,5.00
2017-12-29T21:11:34.943Z,5.80
2017-12-29T21:14:02.410Z,5.65
2017-12-29T21:16:29.845Z,5.35
2017-12-29T21:18:57.308Z,5.10
2017-12-29T21:21:25.044Z,5.47
2017-12-29T21:23:52.463Z,5.22
2017-12-29T21:26:20.111Z,5.55
2017-12-29T21:28:47.652Z,5.72
2017-12-29T21:31:15.078Z,5.45
2017-12-29T21:33:42.507Z,5.20
2017-12-29T21:36:09.944Z,4.68
2017-12-29T21:38:37.388Z,4.87
2017-12-29T21:41:04.808Z,5.40
2017-12-29T21:43:32.231Z,5.62
2017-12-29T21:46:00.072Z,5.20
2017-12-29T21:48:27.530Z,5.82
2017-12-29T21:50:54.963Z,5.10
2017-12-29T21:53:22.391Z,6.05
2017-12-29T21:55:49.851Z,6.85
2017-12-29T21:58:17.279Z,18.30
2017-12-29T22:00:45.108Z,6.30
2017-12-29T22:03:12.543Z,4.95
2017-12-29T22:05:39.977Z,6.40
2017-12-29T22:08:07.400Z,5.37
2017-12-29T22:10:35.224Z,5.90
2017-12-29T22:13:02.675Z,5.80
2017-12-29T22:15:30.125Z,6.00
2017-12-29T22:17:57.543Z,6.20
2017-12-29T22:20:24.987Z,5.25
2017-12-29T22:22:52.817Z,5.50
2017-12-29T22:25:20.248Z,5.40
2017-12-29T22:27:47.991Z,5.70
2017-12-29T22:30:15.411Z,6.00
2017-12-29T22:32:43.239Z,6.12
2017-12-29T22:35:10.663Z,6.82
2017-12-29T22:37:38.359Z,6.15
2017-12-29T22:40:05.780Z,5.90
2017-12-29T22:42:33.204Z,6.50
2017-12-29T22:45:01.047Z,6.95
2017-12-29T22:47:28.471Z,6.65
2017-12-29T22:49:55.900Z,5.32
2017-12-29T22:52:23.344Z,6.18
2017-12-29T22:54:51.167Z,6.93
2017-12-29T22:57:18.599Z,6.80
2017-12-29T22:59:46.035Z,6.43
2017-12-29T23:02:13.475Z,5.90
2017-12-29T23:04:40.907Z,5.75
2017-12-29T23:07:08.330Z,6.10
2017-12-29T23:09:35.985Z,6.25
2017-12-29T23:12:03.403Z,7.55
2017-12-29T23:14:30.832Z,6.75
2017-12-29T23:16:58.294Z,6.22
2017-12-29T23:19:26.116Z,7.53
2017-12-29T23:21:53.556Z,7.80
2017-12-29T23:24:21.187Z,6.35
2017-12-29T23:26:48.616Z,6.40
2017-12-29T23:29:16.042Z,8.40
2017-12-29T23:31:43.482Z,7.40
2017-12-29T23:34:10.911Z,7.80
2017-12-29T23:36:38.347Z,7.82
2017-12-29T23:39:06.167Z,6.43
2017-12-29T23:41:33.706Z,7.37
2017-12-29T23:44:01.141Z,7.03
2017-12-29T23:46:28.568Z,6.57
2017-12-29T23:48:56.006Z,8.20
2017-12-29T23:51:23.431Z,6.93
2017-12-29T23:53:50.859Z,8.02
2017-12-29T23:56:18.646Z,7.50
2017-12-29T23:58:46.076Z,8.05
